Time;durP1;ratioP1;P1;durP2;ratioP2;P2;SDS_P1;SDS_P2;PMS_P1;PMS_P2;Temp;Humidity;BMP_temperature;BMP_pressure;BME280_temperature;BME280_humidity;BME280_pressure;Samples;Min_cycle;Max_cycle;Signal;HPM_P1;HPM_P2
2022/12/23 00:00:55;;;;;;;95.20;57.03;;;;;;;7.72;61.82;94490.59;5029836;28;20565;-44
2022/12/23 00:03:22;;;;;;;91.10;54.73;;;;;;;7.74;61.87;94490.47;5030056;28;20191;-43
2022/12/23 00:05:49;;;;;;;94.83;56.00;;;;;;;7.72;61.85;94485.50;5029953;28;20199;-43
2022/12/23 00:08:16;;;;;;;92.50;56.47;;;;;;;7.72;61.77;94488.03;5039082;28;20596;-44
2022/12/23 00:10:43;;;;;;;95.93;57.23;;;;;;;7.72;61.85;94494.88;5050017;28;20187;-43
2022/12/23 00:16:03;;;;;;;96.77;60.03;;;;;;;7.67;61.87;94489.34;5049419;28;20197;-44
2022/12/23 00:18:30;;;;;;;106.13;62.37;;;;;;;7.71;61.94;94509.34;5049759;28;20190;-43
2022/12/23 00:20:59;;;;;;;101.97;61.90;;;;;;;7.69;61.74;94503.59;5049539;28;20194;-43
2022/12/23 00:23:25;;;;;;;99.37;61.03;;;;;;;7.72;61.91;94505.06;5049769;28;20214;-44
2022/12/23 00:25:52;;;;;;;107.77;64.90;;;;;;;7.71;61.98;94511.09;5049411;28;20191;-44
2022/12/23 00:28:22;;;;;;;107.57;65.93;;;;;;;7.71;62.01;94506.81;5049335;28;20219;-44
2022/12/23 00:30:51;;;;;;;112.53;65.57;;;;;;;7.72;61.95;94505.06;5049317;28;20195;-43
2022/12/23 00:33:21;;;;;;;108.37;66.30;;;;;;;7.73;62.09;94504.16;5049927;28;20587;-43
2022/12/23 00:35:48;;;;;;;120.40;68.33;;;;;;;7.69;61.97;94501.03;5049313;28;20262;-45
2022/12/23 00:42:52;;;;;;;121.73;71.73;;;;;;;7.70;61.96;94499.31;5049516;28;20195;-44
2022/12/23 00:43:50;;;;;;;118.87;72.30;;;;;;;7.71;62.04;94490.72;5023287;28;20283;-43
2022/12/23 00:46:17;;;;;;;124.93;75.20;;;;;;;7.70;61.95;94492.47;5049135;28;20187;-43
2022/12/23 00:51:29;;;;;;;133.83;77.33;;;;;;;7.66;62.15;94472.47;5048208;28;20189;-44
2022/12/23 00:53:55;;;;;;;125.93;78.30;;;;;;;7.69;62.05;94475.59;5049270;28;20183;-44
2022/12/23 00:56:22;;;;;;;130.10;78.17;;;;;;;7.69;62.15;94477.34;5049244;28;20214;-43
2022/12/23 00:58:49;;;;;;;131.37;79.37;;;;;;;7.66;62.09;94485.22;5048678;28;20631;-43
2022/12/23 01:06:46;;;;;;;132.77;80.00;;;;;;;7.66;62.21;94503.81;5028499;28;20191;-43
2022/12/23 01:09:12;;;;;;;132.17;79.63;;;;;;;7.65;62.19;94499.69;5029054;28;20195;-44
2022/12/23 01:11:39;;;;;;;136.27;80.87;;;;;;;7.63;62.25;94490.53;5037781;28;20206;-44
2022/12/23 01:14:08;;;;;;;137.70;81.50;;;;;;;7.64;62.30;94487.88;5048855;28;20643;-44
2022/12/23 01:16:36;;;;;;;125.50;79.63;;;;;;;7.57;62.35;94479.13;5049061;28;20210;-44
2022/12/23 01:19:05;;;;;;;136.97;81.47;;;;;;;7.65;62.27;94492.03;5049049;28;20202;-44
2022/12/23 01:21:32;;;;;;;134.53;79.60;;;;;;;7.65;62.28;94493.78;5048553;28;20240;-44
2022/12/23 01:23:59;;;;;;;134.97;79.60;;;;;;;7.65;62.31;94494.59;5049215;28;20182;-44
2022/12/23 01:26:26;;;;;;;122.23;75.53;;;;;;;7.65;62.36;94484.41;5048856;28;20194;-44
2022/12/23 01:28:53;;;;;;;128.97;80.10;;;;;;;7.69;62.42;94482.41;5048693;28;20706;-43
2022/12/23 01:31:22;;;;;;;127.20;78.37;;;;;;;7.48;62.18;94450.16;5048503;28;20198;-44
2022/12/23 01:33:49;;;;;;;134.37;76.70;;;;;;;7.53;62.03;94448.03;5048201;28;20198;-43
2022/12/23 01:36:17;;;;;;;126.13;73.10;;;;;;;7.62;62.21;94455.84;5048650;28;20227;-43
2022/12/23 01:38:44;;;;;;;121.63;73.47;;;;;;;7.77;62.31;94488.50;5048285;28;20201;-45
2022/12/23 01:42:42;;;;;;;123.47;73.03;;;;;;;7.80;62.25;94485.69;5048785;28;20321;-44
2022/12/23 01:44:03;;;;;;;120.20;68.60;;;;;;;7.83;62.18;94468.56;5047923;28;20241;-44
2022/12/23 01:46:29;;;;;;;113.77;68.67;;;;;;;7.84;62.35;94460.78;5048429;28;20323;-45
2022/12/23 01:48:57;;;;;;;116.40;68.73;;;;;;;7.84;62.13;94467.63;5048667;28;20195;-44
2022/12/23 01:51:28;;;;;;;118.00;67.23;;;;;;;7.90;62.14;94470.47;5048197;28;20261;-44
2022/12/23 01:53:59;;;;;;;113.37;67.27;;;;;;;7.90;62.32;94459.47;5048073;28;20191;-44
2022/12/23 01:56:31;;;;;;;107.90;62.53;;;;;;;7.87;62.24;94447.81;5048278;28;20306;-44
2022/12/23 01:59:02;;;;;;;114.17;66.07;;;;;;;7.95;62.23;94453.06;5048828;28;20195;-43
2022/12/23 02:04:18;;;;;;;102.90;63.63;;;;;;;7.80;62.24;94416.94;5048332;28;20202;-43
2022/12/23 02:09:35;;;;;;;103.20;61.03;;;;;;;8.01;62.03;94441.56;5048251;28;20201;-45
2022/12/23 02:12:33;;;;;;;99.87;62.90;;;;;;;8.02;62.18;94426.16;5048161;28;20195;-44
2022/12/23 02:18:15;;;;;;;110.03;60.37;;;;;;;8.04;62.41;94420.94;5048671;28;20247;-43
2022/12/23 02:21:06;;;;;;;102.50;60.97;;;;;;;8.09;62.26;94426.44;5051776;28;20187;-44
2022/12/23 02:24:04;;;;;;;106.70;62.07;;;;;;;8.10;62.33;94430.59;5051631;28;20183;-44
2022/12/23 02:26:59;;;;;;;105.90;63.23;;;;;;;8.11;62.20;94414.38;5051427;28;20195;-44
2022/12/23 02:29:51;;;;;;;95.97;60.70;;;;;;;7.90;62.08;94378.00;5031744;28;20609;-45
2022/12/23 02:32:24;;;;;;;104.93;61.40;;;;;;;8.16;62.24;94425.00;5031973;28;20694;-43
2022/12/23 02:34:54;;;;;;;100.87;59.60;;;;;;;8.16;62.17;94424.19;5043271;28;20206;-44
2022/12/23 02:37:29;;;;;;;103.40;61.77;;;;;;;8.20;62.18;94434.00;5051781;28;20602;-44
2022/12/23 02:40:02;;;;;;;98.40;59.87;;;;;;;8.20;62.00;94431.47;5051761;28;20245;-44
2022/12/23 02:42:36;;;;;;;97.23;58.93;;;;;;;8.21;62.14;94417.78;5051614;28;20195;-44
2022/12/23 02:45:10;;;;;;;102.17;59.33;;;;;;;8.21;62.20;94409.34;5051464;28;20269;-44
2022/12/23 02:47:41;;;;;;;99.70;60.03;;;;;;;8.26;62.20;94419.94;5051638;28;20186;-43
2022/12/23 02:50:14;;;;;;;103.47;61.53;;;;;;;8.25;62.30;94428.53;5051011;28;20548;-43
2022/12/23 02:52:44;;;;;;;113.03;63.10;;;;;;;8.25;62.18;94436.97;5051195;28;20286;-43
2022/12/23 02:55:16;;;;;;;102.77;61.70;;;;;;;8.26;62.30;94433.47;5051183;28;20257;-45
2022/12/23 02:57:50;;;;;;;104.03;60.73;;;;;;;8.19;62.27;94418.84;5050992;28;20296;-44
2022/12/23 03:00:18;;;;;;;98.47;62.07;;;;;;;8.28;62.05;94423.13;5051087;28;20595;-43
2022/12/23 03:02:47;;;;;;;107.47;65.33;;;;;;;8.28;62.21;94420.59;5051281;28;20179;-43
2022/12/23 03:05:25;;;;;;;111.33;65.50;;;;;;;8.26;62.26;94418.19;5050708;28;20271;-44
2022/12/23 03:07:54;;;;;;;109.33;64.03;;;;;;;8.28;62.26;94435.88;5050825;28;20272;-44
2022/12/23 03:10:30;;;;;;;109.40;66.27;;;;;;;8.27;62.10;94434.28;5050874;28;20313;-43
2022/12/23 03:13:09;;;;;;;108.57;65.87;;;;;;;8.04;62.07;94395.47;5050660;28;20191;-43
2022/12/23 03:15:43;;;;;;;110.80;64.77;;;;;;;8.25;62.20;94428.53;5050890;28;20191;-44
2022/12/23 03:18:21;;;;;;;106.87;63.77;;;;;;;8.25;62.22;94425.97;5050299;28;20225;-44
2022/12/23 03:20:53;;;;;;;109.13;67.50;;;;;;;8.24;62.29;94427.69;5043194;28;20344;-43
2022/12/23 03:23:25;;;;;;;109.27;65.33;;;;;;;8.24;62.15;94414.94;5050346;28;20908;-44
2022/12/23 03:25:59;;;;;;;106.13;63.47;;;;;;;8.19;62.11;94417.09;5050689;28;20199;-44
2022/12/23 03:28:34;;;;;;;113.93;65.80;;;;;;;8.24;62.22;94425.13;5049870;28;20713;-43
2022/12/23 03:31:03;;;;;;;106.60;63.83;;;;;;;8.17;62.40;94413.06;5050641;28;20198;-44
2022/12/23 03:33:35;;;;;;;106.53;62.40;;;;;;;8.00;62.10;94386.50;5050199;28;20226;-44
2022/12/23 03:36:05;;;;;;;107.33;64.93;;;;;;;8.16;62.30;94425.00;5050954;28;20202;-44
2022/12/23 03:38:36;;;;;;;100.77;63.30;;;;;;;8.01;62.21;94381.25;5050210;28;20226;-44
2022/12/23 03:41:07;;;;;;;106.97;63.57;;;;;;;8.23;62.07;94438.00;5051032;28;20187;-44
2022/12/23 03:43:39;;;;;;;103.50;62.33;;;;;;;8.18;62.22;94427.41;5050410;28;20273;-44
2022/12/23 03:46:12;;;;;;;107.97;62.60;;;;;;;8.21;62.24;94429.72;5050619;28;20199;-44
2022/12/23 03:48:45;;;;;;;104.87;61.77;;;;;;;8.21;62.24;94439.91;5050008;28;20257;-44
2022/12/23 03:51:17;;;;;;;101.83;61.93;;;;;;;8.21;62.07;94429.72;5050626;28;20186;-44
2022/12/23 03:53:49;;;;;;;103.10;61.87;;;;;;;8.20;62.14;94443.34;5049892;28;20191;-45
2022/12/23 03:56:21;;;;;;;97.90;59.50;;;;;;;8.20;62.21;94426.38;5050739;28;20210;-44
2022/12/23 03:58:55;;;;;;;97.00;60.80;;;;;;;8.20;62.05;94434.00;5049932;28;20758;-44
2022/12/23 04:01:32;;;;;;;92.20;58.70;;;;;;;8.20;62.10;94426.38;5050277;28;20214;-45
2022/12/23 04:04:05;;;;;;;92.83;57.53;;;;;;;8.20;62.22;94431.47;5050083;28;20191;-44
2022/12/23 04:06:39;;;;;;;97.93;58.03;;;;;;;8.19;62.10;94422.19;5050186;28;20199;-43
2022/12/23 04:09:07;;;;;;;97.23;58.83;;;;;;;8.21;62.12;94432.25;5050032;28;20191;-43
2022/12/23 04:11:35;;;;;;;93.40;56.50;;;;;;;8.20;62.05;94430.63;5049865;28;20601;-43
2022/12/23 04:14:02;;;;;;;92.17;56.40;;;;;;;8.20;62.00;94428.91;5049586;28;20195;-44
2022/12/23 04:16:29;;;;;;;103.53;60.87;;;;;;;8.18;62.23;94428.22;5049754;28;20202;-44
2022/12/23 04:18:56;;;;;;;97.70;57.43;;;;;;;8.20;62.24;94428.91;5049506;28;20223;-44
2022/12/23 04:21:24;;;;;;;93.93;57.03;;;;;;;8.19;62.03;94426.47;5049870;28;20260;-44
2022/12/23 04:23:51;;;;;;;96.70;57.73;;;;;;;8.23;62.23;94425.28;5049187;28;20397;-43
2022/12/23 04:26:18;;;;;;;94.70;55.90;;;;;;;8.22;62.05;94424.47;5049212;28;20732;-44
2022/12/23 04:28:44;;;;;;;94.33;57.80;;;;;;;8.20;62.07;94421.28;5049108;28;20234;-45
2022/12/23 04:31:11;;;;;;;86.43;55.37;;;;;;;8.26;62.11;94425.03;5049512;28;20183;-44
2022/12/23 04:33:38;;;;;;;93.47;56.13;;;;;;;8.25;62.05;94408.94;5049615;28;20183;-45
2022/12/23 04:36:05;;;;;;;94.50;56.33;;;;;;;8.27;62.06;94403.72;5049704;28;20191;-44
2022/12/23 04:38:33;;;;;;;90.73;55.33;;;;;;;8.26;62.20;94407.19;5048730;28;20288;-44
2022/12/23 04:41:00;;;;;;;96.43;57.67;;;;;;;8.25;62.24;94415.78;5048327;28;20191;-43
2022/12/23 04:43:27;;;;;;;92.50;56.50;;;;;;;8.25;62.22;94418.34;5049575;28;20256;-44
2022/12/23 04:45:54;;;;;;;98.23;58.60;;;;;;;8.27;62.22;94424.09;5049174;28;20191;-47
2022/12/23 04:48:20;;;;;;;94.00;56.60;;;;;;;8.27;62.33;94422.34;5049413;28;20183;-44
2022/12/23 04:50:47;;;;;;;104.30;59.70;;;;;;;8.29;62.11;94438.31;5048622;28;20183;-43
2022/12/23 04:53:14;;;;;;;87.77;57.37;;;;;;;8.29;62.39;94434.97;5048854;28;20659;-45
2022/12/23 04:55:42;;;;;;;93.87;58.53;;;;;;;8.28;62.43;94423.94;5048866;28;20187;-45
2022/12/23 04:58:09;;;;;;;96.80;58.57;;;;;;;8.32;62.25;94432.13;5049439;28;20215;-43
2022/12/23 05:00:36;;;;;;;104.30;58.77;;;;;;;8.33;62.37;94435.50;5048743;28;20252;-43
2022/12/23 05:03:02;;;;;;;92.37;57.40;;;;;;;8.32;62.39;94437.22;5048982;28;20198;-44
2022/12/23 05:05:29;;;;;;;95.17;56.87;;;;;;;8.34;62.45;94437.94;5048863;28;20198;-45
2022/12/23 05:08:03;;;;;;;102.27;60.70;;;;;;;8.36;62.40;94458.97;5048626;28;20205;-50
2022/12/23 05:10:30;;;;;;;98.00;58.30;;;;;;;8.38;62.39;94461.44;5048240;28;20191;-44
2022/12/23 05:12:58;;;;;;;95.43;57.60;;;;;;;8.32;62.47;94447.44;5049059;28;20191;-43
2022/12/23 05:15:25;;;;;;;102.83;60.83;;;;;;;8.37;62.52;94475.09;5048794;28;20716;-44
2022/12/23 05:17:51;;;;;;;98.33;59.10;;;;;;;8.37;62.57;94460.59;5048814;28;20225;-43
2022/12/23 05:20:18;;;;;;;101.17;59.43;;;;;;;8.37;62.62;94455.50;5048406;28;20625;-43
2022/12/23 05:22:45;;;;;;;89.73;56.17;;;;;;;8.39;62.77;94461.28;5048650;28;20253;-44
2022/12/23 05:25:12;;;;;;;96.80;57.80;;;;;;;8.37;62.60;94463.16;5048651;28;20245;-44
2022/12/23 05:27:38;;;;;;;90.87;57.23;;;;;;;8.36;62.63;94458.97;5048513;28;20666;-44
2022/12/23 05:30:08;;;;;;;90.30;55.77;;;;;;;8.40;62.72;94465.44;5048351;28;20202;-44
2022/12/23 05:32:35;;;;;;;88.73;55.10;;;;;;;8.41;62.59;94456.06;5048236;28;20629;-44
2022/12/23 05:35:02;;;;;;;97.23;56.17;;;;;;;8.43;62.48;94456.75;5048495;28;20191;-44
2022/12/23 05:37:29;;;;;;;89.07;55.93;;;;;;;8.32;62.47;94428.78;5048335;28;20215;-46
2022/12/23 05:39:55;;;;;;;91.00;53.73;;;;;;;8.44;62.66;94448.97;5048428;28;20675;-44
2022/12/23 05:42:22;;;;;;;47.13;30.60;;;;;;;8.60;85.87;94440.81;5049003;28;20187;-43
2022/12/23 05:44:49;;;;;;;48.03;29.87;;;;;;;9.29;100.00;94455.22;5048867;28;20650;-44
2022/12/23 05:47:17;;;;;;;47.73;31.27;;;;;;;10.07;100.00;94444.81;5048871;28;20625;-44
2022/12/23 05:49:44;;;;;;;46.97;28.97;;;;;;;10.80;100.00;94451.59;5048898;28;20192;-44
2022/12/23 05:52:11;;;;;;;37.97;27.13;;;;;;;11.55;98.65;94456.38;5050144;28;20179;-44
2022/12/23 05:54:37;;;;;;;35.60;24.57;;;;;;;12.22;95.31;94448.97;5052624;28;20253;-44
2022/12/23 05:57:04;;;;;;;38.53;25.63;;;;;;;12.83;92.35;94450.44;5052824;28;20202;-44
2022/12/23 05:59:31;;;;;;;51.77;31.70;;;;;;;13.32;89.38;94454.84;5052991;28;20210;-43
2022/12/23 06:01:58;;;;;;;50.33;31.80;;;;;;;13.47;86.55;94453.22;5052111;28;20183;-43
2022/12/23 06:04:26;;;;;;;44.00;31.13;;;;;;;13.44;83.83;94459.50;5052147;28;20249;-43
2022/12/23 06:06:53;;;;;;;57.07;32.60;;;;;;;13.33;82.01;94466.72;5052837;28;20187;-44
2022/12/23 06:09:20;;;;;;;48.93;33.30;;;;;;;13.17;80.40;94458.03;5052274;28;20202;-44
2022/12/23 06:11:46;;;;;;;48.53;34.27;;;;;;;13.00;78.82;94459.78;5052345;28;20675;-45
2022/12/23 06:14:13;;;;;;;59.17;36.50;;;;;;;12.84;77.72;94456.38;5052596;28;20194;-44
2022/12/23 06:16:40;;;;;;;57.23;36.37;;;;;;;12.66;76.71;94462.41;5039603;28;20202;-45
2022/12/23 06:19:07;;;;;;;56.03;37.37;;;;;;;12.45;75.73;94456.88;5041096;28;20215;-44
2022/12/23 06:21:36;;;;;;;55.57;38.20;;;;;;;12.29;74.38;94448.16;5048444;28;20305;-43
2022/12/23 06:24:03;;;;;;;64.87;39.43;;;;;;;12.09;73.60;94454.50;5048387;28;20199;-43
2022/12/23 06:26:30;;;;;;;62.43;40.97;;;;;;;11.98;72.86;94460.69;5048950;28;20195;-44
2022/12/23 06:28:57;;;;;;;56.70;40.77;;;;;;;11.75;72.38;94457.00;5046756;28;20227;-44
2022/12/23 06:31:23;;;;;;;60.93;40.90;;;;;;;11.70;72.12;94464.31;5050853;28;20252;-44
2022/12/23 06:33:50;;;;;;;64.50;43.03;;;;;;;11.56;71.53;94466.44;5051065;28;20191;-45
2022/12/23 06:36:17;;;;;;;65.87;44.43;;;;;;;11.44;71.28;94465.09;5050657;28;20644;-44
2022/12/23 06:38:45;;;;;;;62.50;44.30;;;;;;;11.33;71.05;94469.66;5051017;28;20651;-43
2022/12/23 06:41:12;;;;;;;70.27;46.00;;;;;;;11.23;70.54;94477.41;5050717;28;20249;-43
2022/12/23 06:43:39;;;;;;;67.87;45.37;;;;;;;11.14;70.23;94480.81;5050925;28;20191;-44
2022/12/23 06:46:05;;;;;;;71.80;46.10;;;;;;;11.03;70.10;94471.63;5051074;28;20221;-42
2022/12/23 06:48:32;;;;;;;67.33;46.63;;;;;;;10.95;69.80;94467.22;5050580;28;20191;-44
2022/12/23 06:50:59;;;;;;;72.63;47.00;;;;;;;10.88;69.51;94473.91;5050547;28;20667;-42
2022/12/23 06:53:26;;;;;;;72.33;46.63;;;;;;;10.83;69.34;94480.38;5050372;28;20195;-49
2022/12/23 06:56:00;;;;;;;78.60;50.00;;;;;;;10.75;69.06;94475.97;5049783;28;20276;-44
2022/12/23 06:58:27;;;;;;;71.27;48.07;;;;;;;10.70;68.92;94473.03;5050494;28;20261;-44
2022/12/23 07:00:54;;;;;;;78.90;50.90;;;;;;;10.52;68.69;94453.34;5049748;28;20187;-43
2022/12/23 07:03:21;;;;;;;76.10;50.57;;;;;;;10.60;68.36;94479.97;5050197;28;20188;-44
2022/12/23 07:05:48;;;;;;;79.33;51.07;;;;;;;10.56;68.30;94479.44;5049545;28;20199;-44
2022/12/23 07:08:15;;;;;;;75.73;48.57;;;;;;;10.51;68.25;94476.53;5050375;28;20240;-44
2022/12/23 07:10:42;;;;;;;77.73;51.37;;;;;;;10.49;68.15;94486.91;5050570;28;20187;-44
2022/12/23 07:13:10;;;;;;;75.77;49.00;;;;;;;10.46;67.90;94481.25;5050730;28;20190;-44
2022/12/23 07:15:38;;;;;;;76.77;50.20;;;;;;;10.43;67.68;94482.34;5050293;28;20186;-44
2022/12/23 07:18:05;;;;;;;71.43;48.17;;;;;;;10.40;67.80;94477.50;5049794;28;20218;-43
2022/12/23 07:20:32;;;;;;;75.00;51.37;;;;;;;10.37;67.50;94487.22;5050600;28;20643;-43
2022/12/23 07:22:59;;;;;;;81.23;50.53;;;;;;;10.34;67.30;94477.28;5050195;28;20210;-41
2022/12/23 07:25:26;;;;;;;76.60;50.40;;;;;;;10.24;66.99;94470.47;5050754;28;20195;-44
2022/12/23 07:27:53;;;;;;;75.93;49.97;;;;;;;10.30;66.88;94485.22;5049775;28;20238;-44
2022/12/23 07:30:22;;;;;;;78.07;50.97;;;;;;;10.33;66.75;94491.00;5049520;28;20666;-42
2022/12/23 07:32:49;;;;;;;86.67;51.97;;;;;;;10.00;66.60;94426.69;5049930;28;20199;-43
2022/12/23 07:35:16;;;;;;;77.63;49.23;;;;;;;10.71;66.35;94485.72;5050401;28;20240;-44
2022/12/23 07:37:43;;;;;;;73.50;49.23;;;;;;;11.03;66.01;94489.53;5049828;28;20194;-43
2022/12/23 07:40:11;;;;;;;77.03;50.83;;;;;;;11.33;65.59;94487.56;5049587;28;20672;-43
2022/12/23 07:42:38;;;;;;;73.50;48.33;;;;;;;11.61;65.33;94494.19;5050012;28;20183;-42
2022/12/23 07:45:06;;;;;;;74.83;49.63;;;;;;;11.79;65.04;94496.72;5049460;28;20571;-43
2022/12/23 07:47:34;;;;;;;79.27;50.80;;;;;;;11.92;64.58;94499.72;5049679;28;20276;-42
2022/12/23 07:50:01;;;;;;;80.17;47.73;;;;;;;12.03;64.37;94503.78;5049422;28;20191;-43
2022/12/23 07:52:28;;;;;;;75.87;49.37;;;;;;;12.10;63.96;94497.09;5050210;28;20194;-43
2022/12/23 07:54:55;;;;;;;75.43;50.27;;;;;;;12.13;63.63;94499.34;5049219;28;20567;-43
2022/12/23 07:57:23;;;;;;;66.90;47.60;;;;;;;12.23;63.24;94504.38;5050065;28;20287;-42
2022/12/23 07:59:50;;;;;;;76.17;50.27;;;;;;;12.28;63.31;94499.59;5048942;28;20680;-42
2022/12/23 08:02:16;;;;;;;74.90;48.60;;;;;;;12.14;62.87;94474.53;5049818;28;20974;-41
2022/12/23 08:04:44;;;;;;;70.20;49.03;;;;;;;12.27;62.69;94472.38;5049460;28;20214;-42
2022/12/23 08:07:11;;;;;;;73.10;47.57;;;;;;;12.69;62.20;94504.91;5049808;28;20541;-42
2022/12/23 08:09:38;;;;;;;71.37;47.30;;;;;;;12.84;61.56;94505.13;5049015;28;20694;-43
2022/12/23 08:12:05;;;;;;;75.13;46.30;;;;;;;12.88;61.38;94507.22;5049697;28;20194;-42
2022/12/23 08:14:32;;;;;;;71.23;47.60;;;;;;;12.80;60.94;94484.91;5048869;28;20191;-44
2022/12/23 08:16:59;;;;;;;75.27;48.97;;;;;;;12.99;61.12;94508.69;5049547;28;20256;-42
2022/12/23 08:19:25;;;;;;;70.33;48.50;;;;;;;13.15;60.83;94513.06;5049797;28;20253;-42
2022/12/23 08:21:54;;;;;;;72.73;49.57;;;;;;;13.25;60.61;94506.03;5049398;28;20200;-44
2022/12/23 08:24:20;;;;;;;70.30;47.83;;;;;;;13.28;60.82;94514.22;5049022;28;20261;-44
2022/12/23 08:26:47;;;;;;;71.17;48.10;;;;;;;13.29;60.52;94510.69;5049358;28;20195;-44
2022/12/23 08:29:14;;;;;;;70.13;47.90;;;;;;;13.23;60.65;94502.84;5048841;28;20229;-43
2022/12/23 08:31:41;;;;;;;72.70;48.30;;;;;;;13.19;60.20;94492.03;5049320;28;20195;-42
2022/12/23 08:34:08;;;;;;;69.73;48.67;;;;;;;13.51;59.85;94513.59;5048951;28;20191;-42
2022/12/23 08:36:36;;;;;;;73.40;49.33;;;;;;;13.81;58.95;94509.59;5049229;28;20195;-42
2022/12/23 08:39:07;;;;;;;78.57;48.97;;;;;;;14.02;58.31;94509.88;5048818;28;20663;-42
2022/12/23 08:41:37;;;;;;;70.40;47.13;;;;;;;14.06;58.08;94510.38;5048641;28;20187;-43
2022/12/23 08:44:04;;;;;;;73.30;48.60;;;;;;;13.98;58.06;94511.16;5048420;28;20202;-44
2022/12/23 08:46:31;;;;;;;74.60;48.23;;;;;;;13.89;58.29;94509.56;5048705;28;20195;-44
2022/12/23 08:48:58;;;;;;;70.67;47.47;;;;;;;13.80;58.32;94505.41;5048785;28;20207;-43
2022/12/23 08:51:26;;;;;;;70.13;46.50;;;;;;;13.69;58.36;94503.19;5048896;28;20264;-42
2022/12/23 08:53:55;;;;;;;65.73;44.37;;;;;;;13.59;58.63;94511.03;5046250;28;20195;-43
2022/12/23 08:56:24;;;;;;;72.37;48.67;;;;;;;13.50;58.52;94504.28;5048447;28;20639;-43
2022/12/23 08:58:53;;;;;;;68.13;47.30;;;;;;;13.44;58.76;94505.75;5048462;28;20604;-43
2022/12/23 09:01:22;;;;;;;76.53;48.23;;;;;;;13.43;58.64;94505.91;5048409;28;20202;-43
2022/12/23 09:03:49;;;;;;;70.53;46.27;;;;;;;13.41;58.54;94503.47;5048550;28;20195;-43
2022/12/23 09:06:18;;;;;;;78.03;50.67;;;;;;;13.41;58.68;94500.91;5047586;28;20187;-43
2022/12/23 09:08:45;;;;;;;71.57;47.17;;;;;;;13.40;58.70;94507.03;5048299;28;20206;-43
2022/12/23 09:11:15;;;;;;;69.00;47.33;;;;;;;13.40;58.63;94508.78;5046123;28;20568;-44
2022/12/23 09:13:43;;;;;;;66.73;47.27;;;;;;;13.36;58.65;94503.16;5048370;28;20183;-43
2022/12/23 09:16:11;;;;;;;69.70;46.63;;;;;;;13.32;58.64;94496.75;5048269;28;20566;-42
2022/12/23 09:18:38;;;;;;;76.70;46.20;;;;;;;13.26;58.74;94497.38;5047499;28;20337;-43
2022/12/23 09:21:07;;;;;;;73.67;47.33;;;;;;;13.28;58.63;94496.25;5047929;28;20198;-42
2022/12/23 09:23:33;;;;;;;69.87;44.97;;;;;;;13.26;58.89;94503.31;5046768;28;20187;-43
2022/12/23 09:26:00;;;;;;;70.33;46.73;;;;;;;13.30;58.68;94509.75;5046589;28;20198;-42
2022/12/23 09:28:28;;;;;;;70.03;46.50;;;;;;;13.29;58.53;94500.41;5046920;28;20214;-43
2022/12/23 09:30:56;;;;;;;71.87;47.83;;;;;;;13.33;58.42;94506.03;5048320;28;20285;-42
2022/12/23 09:33:23;;;;;;;71.87;45.97;;;;;;;13.35;58.57;94508.47;5047584;28;20183;-42
2022/12/23 09:35:50;;;;;;;69.53;47.10;;;;;;;13.34;58.33;94496.56;5047872;28;20226;-42
2022/12/23 09:38:17;;;;;;;72.73;47.87;;;;;;;13.40;58.20;94504.44;5047597;28;20646;-42
2022/12/23 09:40:44;;;;;;;75.47;46.37;;;;;;;13.40;58.38;94501.88;5047926;28;20199;-45
2022/12/23 09:43:21;;;;;;;72.30;47.07;;;;;;;13.23;58.12;94470.25;5047473;28;20191;-43
2022/12/23 09:46:02;;;;;;;67.03;46.73;;;;;;;13.43;57.94;94503.34;5045512;28;20237;-43
2022/12/23 09:48:34;;;;;;;65.50;45.47;;;;;;;13.39;57.98;94486.66;5047204;28;20194;-42
2022/12/23 09:51:03;;;;;;;67.57;45.80;;;;;;;13.45;58.04;94502.22;5047994;28;20194;-44
2022/12/23 09:53:45;;;;;;;68.57;46.30;;;;;;;13.41;57.99;94488.06;5047526;28;20289;-42
2022/12/23 09:56:19;;;;;;;66.13;45.70;;;;;;;13.46;57.90;94493.53;5047516;28;20201;-43
2022/12/23 09:58:52;;;;;;;73.53;47.87;;;;;;;13.47;57.82;94497.72;5047169;28;20310;-45
2022/12/23 10:01:29;;;;;;;66.10;44.87;;;;;;;13.48;57.84;94499.31;5047278;28;20540;-43
2022/12/23 10:04:18;;;;;;;71.40;46.37;;;;;;;13.50;57.77;94494.00;5047583;28;20195;-43
2022/12/23 10:06:49;;;;;;;68.93;46.50;;;;;;;13.51;57.58;94493.03;5031919;28;20202;-43
2022/12/23 10:09:17;;;;;;;80.37;51.03;;;;;;;13.33;57.77;94454.69;5047655;28;20187;-43
2022/12/23 10:11:48;;;;;;;74.87;48.00;;;;;;;13.55;57.54;94479.72;5047456;28;20203;-43
2022/12/23 10:14:20;;;;;;;71.70;49.93;;;;;;;13.60;57.43;94476.69;5047601;28;20248;-43
2022/12/23 10:16:53;;;;;;;79.83;52.37;;;;;;;13.69;57.26;94480.06;5047519;28;20202;-43
2022/12/23 10:19:27;;;;;;;73.30;50.17;;;;;;;13.77;57.24;94485.16;5047650;28;20227;-43
2022/12/23 10:22:00;;;;;;;69.03;50.33;;;;;;;13.84;56.99;94478.44;5047614;28;20198;-47
2022/12/23 10:24:33;;;;;;;77.57;51.70;;;;;;;13.87;57.04;94474.72;5047381;28;20199;-43
2022/12/23 10:27:05;;;;;;;74.67;52.80;;;;;;;13.83;57.03;94448.56;5047736;28;20226;-44
2022/12/23 10:29:33;;;;;;;81.53;55.30;;;;;;;14.00;56.87;94457.03;5047011;28;20226;-43
2022/12/23 10:32:11;;;;;;;74.60;52.87;;;;;;;13.99;56.65;94453.66;5046343;28;20214;-43
2022/12/23 10:34:48;;;;;;;88.10;54.87;;;;;;;14.11;56.57;94464.38;5046057;28;20209;-43
2022/12/23 10:37:23;;;;;;;76.47;53.77;;;;;;;14.20;56.44;94470.31;5046901;28;20244;-43
2022/12/23 10:39:59;;;;;;;76.47;52.20;;;;;;;14.27;56.22;94451.47;5048852;28;20230;-43
2022/12/23 10:42:34;;;;;;;80.57;54.33;;;;;;;14.36;56.35;94452.25;5051315;28;20260;-45
2022/12/23 10:45:23;;;;;;;78.77;54.87;;;;;;;14.46;56.08;94449.47;5050600;28;20186;-43
2022/12/23 10:48:05;;;;;;;80.63;54.17;;;;;;;14.53;55.98;94435.81;5048577;28;20191;-43
2022/12/23 10:50:47;;;;;;;83.53;55.27;;;;;;;14.60;55.92;94435.94;5049837;28;20682;-43
2022/12/23 10:53:20;;;;;;;79.27;55.07;;;;;;;14.69;55.74;94432.38;5049803;28;20187;-42
2022/12/23 10:55:50;;;;;;;84.97;55.30;;;;;;;14.78;55.77;94438.28;5050509;28;20293;-43
2022/12/23 10:58:17;;;;;;;80.87;53.93;;;;;;;14.81;55.64;94437.94;5050821;28;20214;-43
2022/12/23 11:00:51;;;;;;;79.13;54.97;;;;;;;14.86;55.46;94438.22;5050356;28;20218;-43
2022/12/23 11:03:23;;;;;;;85.00;55.10;;;;;;;14.95;55.24;94432.06;5050490;28;20199;-43
2022/12/23 11:05:52;;;;;;;78.70;55.43;;;;;;;15.00;55.27;94437.50;5050650;28;20219;-43
2022/12/23 11:08:21;;;;;;;85.60;55.10;;;;;;;14.98;55.33;94444.59;5050406;28;20694;-43
2022/12/23 11:10:48;;;;;;;81.50;53.63;;;;;;;14.98;55.46;94436.88;5050369;28;20222;-43
2022/12/23 11:13:25;;;;;;;80.13;53.53;;;;;;;14.98;55.35;94434.28;5050489;28;20191;-44
2022/12/23 11:15:52;;;;;;;73.97;51.47;;;;;;;14.93;55.34;94423.69;5047878;28;20191;-43
2022/12/23 11:18:21;;;;;;;75.37;52.40;;;;;;;14.97;55.48;94427.50;5050160;28;20226;-43
2022/12/23 11:21:03;;;;;;;82.83;53.77;;;;;;;14.93;55.24;94422.88;5050206;28;20214;-43
2022/12/23 11:23:31;;;;;;;79.53;52.27;;;;;;;14.91;55.36;94420.50;5049497;28;20191;-44
2022/12/23 11:26:01;;;;;;;80.60;53.47;;;;;;;14.94;55.50;94427.06;5050111;28;20199;-43
2022/12/23 11:28:29;;;;;;;78.30;53.33;;;;;;;14.97;55.47;94435.25;5049941;28;20317;-42
2022/12/23 11:31:03;;;;;;;73.40;52.03;;;;;;;14.95;55.45;94434.63;5049211;28;20209;-42
2022/12/23 11:33:34;;;;;;;81.63;53.57;;;;;;;14.93;55.31;94438.31;5047902;28;20202;-42
2022/12/23 11:36:04;;;;;;;83.37;51.43;;;;;;;14.88;55.49;94433.69;5049981;28;20210;-44
2022/12/23 11:38:32;;;;;;;82.63;53.17;;;;;;;14.83;55.48;94433.41;5049217;28;20183;-44
2022/12/23 11:40:59;;;;;;;81.40;53.03;;;;;;;14.78;55.58;94439.06;5048751;28;20214;-42
2022/12/23 11:43:27;;;;;;;74.57;49.53;;;;;;;14.74;55.58;94437.00;5049745;28;20198;-43
2022/12/23 11:46:16;;;;;;;73.53;51.13;;;;;;;14.66;55.53;94443.00;5049743;28;20199;-42
2022/12/23 11:48:45;;;;;;;74.53;49.37;;;;;;;14.62;55.82;94446.88;5048944;28;20206;-43
2022/12/23 11:51:12;;;;;;;74.63;50.73;;;;;;;14.47;55.87;94428.75;5049559;28;20190;-43
2022/12/23 11:53:43;;;;;;;67.03;50.00;;;;;;;14.55;55.70;94439.03;5049677;28;20199;-43